createdAt,value
2023-05-14T00:01:10.093Z,21.97
2023-05-14T00:03:41.312Z,21.97
2023-05-14T00:06:12.375Z,21.98
2023-05-14T00:08:43.099Z,21.98
2023-05-14T00:11:13.833Z,21.98
2023-05-14T00:13:44.632Z,21.98
2023-05-14T00:16:16.095Z,21.98
2023-05-14T00:18:46.898Z,21.97
2023-05-14T00:21:17.615Z,21.97
2023-05-14T00:23:48.569Z,21.97
2023-05-14T00:26:20.427Z,21.97
2023-05-14T00:28:51.221Z,21.94
2023-05-14T00:31:21.939Z,21.96
2023-05-14T00:33:52.616Z,21.95
2023-05-14T00:36:23.385Z,21.94
2023-05-14T00:38:54.265Z,21.93
2023-05-14T00:41:25.299Z,21.93
2023-05-14T00:43:56.457Z,21.93
2023-05-14T00:46:27.297Z,21.92
2023-05-14T00:48:58.558Z,21.92
2023-05-14T00:51:29.342Z,21.91
2023-05-14T00:54:00.274Z,21.92
2023-05-14T00:56:31.234Z,21.93
2023-05-14T00:59:01.904Z,21.94
2023-05-14T01:01:32.761Z,21.93
2023-05-14T01:04:04.070Z,21.93
2023-05-14T01:06:41.546Z,21.92
2023-05-14T01:09:15.855Z,21.90
2023-05-14T01:11:53.370Z,21.92
2023-05-14T01:14:29.931Z,21.90
2023-05-14T01:17:03.746Z,21.91
2023-05-14T01:19:39.158Z,21.92
2023-05-14T01:22:10.032Z,21.92
2023-05-14T01:24:41.598Z,21.92
2023-05-14T01:27:17.317Z,21.92
2023-05-14T01:29:54.729Z,21.91
2023-05-14T01:32:26.741Z,21.90
2023-05-14T01:35:01.516Z,21.89
2023-05-14T01:37:33.726Z,21.88
2023-05-14T01:40:06.290Z,21.88
2023-05-14T01:42:37.910Z,21.88
2023-05-14T01:45:10.574Z,21.87
2023-05-14T01:47:41.393Z,21.87
2023-05-14T01:50:13.519Z,21.86
2023-05-14T01:52:44.700Z,21.86
2023-05-14T01:55:15.967Z,21.86
2023-05-14T01:57:47.055Z,21.87
2023-05-14T02:00:18.409Z,21.86
2023-05-14T02:02:49.074Z,21.88
2023-05-14T02:05:20.438Z,21.88
2023-05-14T02:07:51.400Z,21.88
2023-05-14T02:10:22.178Z,21.88
2023-05-14T02:12:53.321Z,21.88
2023-05-14T02:15:24.190Z,21.87
2023-05-14T02:17:55.028Z,21.86
2023-05-14T02:20:26.005Z,21.85
2023-05-14T02:22:57.019Z,21.84
2023-05-14T02:25:27.799Z,21.84
2023-05-14T02:27:58.407Z,21.83
2023-05-14T02:30:30.153Z,21.82
2023-05-14T02:33:01.402Z,21.81
2023-05-14T02:35:32.183Z,21.82
2023-05-14T02:38:02.878Z,21.81
2023-05-14T02:40:33.515Z,21.81
2023-05-14T02:43:04.359Z,21.80
2023-05-14T02:45:35.021Z,21.80
2023-05-14T02:48:06.197Z,21.80
2023-05-14T02:50:37.497Z,21.80
2023-05-14T02:53:08.944Z,21.77
2023-05-14T02:55:39.591Z,21.79
2023-05-14T02:58:10.627Z,21.78
2023-05-14T03:00:41.257Z,21.77
2023-05-14T03:03:12.168Z,21.77
2023-05-14T03:05:43.413Z,21.77
2023-05-14T03:08:14.356Z,21.76
2023-05-14T03:10:45.137Z,21.77
2023-05-14T03:13:17.942Z,21.76
2023-05-14T03:15:48.816Z,21.77
2023-05-14T03:18:19.498Z,21.76
2023-05-14T03:20:50.203Z,21.75
2023-05-14T03:23:21.297Z,21.76
2023-05-14T03:25:52.675Z,21.75
2023-05-14T03:28:23.576Z,21.75
2023-05-14T03:30:55.015Z,21.75
2023-05-14T03:33:25.787Z,21.76
2023-05-14T03:35:56.590Z,21.75
2023-05-14T03:38:27.255Z,21.78
2023-05-14T03:40:58.008Z,21.79
2023-05-14T03:43:28.726Z,21.79
2023-05-14T03:46:00.190Z,21.80
2023-05-14T03:48:30.834Z,21.80
2023-05-14T03:51:01.878Z,21.81
2023-05-14T03:53:32.833Z,21.80
2023-05-14T03:56:03.691Z,21.80
2023-05-14T03:58:34.436Z,21.81
2023-05-14T04:01:05.333Z,21.81
2023-05-14T04:03:36.584Z,21.81
2023-05-14T04:06:08.127Z,21.80
2023-05-14T04:08:39.197Z,21.79
2023-05-14T04:11:10.028Z,21.79
2023-05-14T04:13:40.711Z,21.79
2023-05-14T04:16:11.491Z,21.78
2023-05-14T04:18:42.178Z,21.78
2023-05-14T04:21:13.199Z,21.77
2023-05-14T04:23:43.918Z,21.78
2023-05-14T04:26:14.590Z,21.77
2023-05-14T04:28:45.809Z,21.76
2023-05-14T04:31:16.544Z,21.76
2023-05-14T04:33:47.480Z,21.75
2023-05-14T04:36:18.777Z,21.75
2023-05-14T04:38:49.568Z,21.75
2023-05-14T04:41:20.235Z,21.73
2023-05-14T04:43:52.413Z,21.75
2023-05-14T04:46:23.290Z,21.75
2023-05-14T04:48:54.155Z,21.74
2023-05-14T04:51:24.888Z,21.74
2023-05-14T04:53:55.584Z,21.74
2023-05-14T04:56:26.370Z,21.74
2023-05-14T04:58:57.115Z,21.74
2023-05-14T05:01:27.901Z,21.74
2023-05-14T05:03:58.799Z,21.74
2023-05-14T05:06:29.542Z,21.75
2023-05-14T05:09:01.954Z,21.74
2023-05-14T05:11:32.959Z,21.75
2023-05-14T05:14:03.669Z,21.74
2023-05-14T05:16:34.733Z,21.74
2023-05-14T05:19:05.601Z,21.73
2023-05-14T05:21:37.142Z,21.73
2023-05-14T05:24:08.848Z,21.73
2023-05-14T05:26:39.840Z,21.72
2023-05-14T05:29:10.617Z,21.71
2023-05-14T05:31:41.643Z,21.71
2023-05-14T05:34:12.475Z,21.71
2023-05-14T05:36:43.204Z,21.70
2023-05-14T05:39:13.837Z,21.70
2023-05-14T05:41:44.992Z,21.66
2023-05-14T05:44:15.875Z,21.69
2023-05-14T05:46:46.806Z,21.68
2023-05-14T05:49:17.611Z,21.68
2023-05-14T05:51:48.327Z,21.68
2023-05-14T05:54:19.313Z,21.68
2023-05-14T05:56:50.049Z,21.67
2023-05-14T05:59:20.741Z,21.68
2023-05-14T06:01:51.559Z,21.68
2023-05-14T06:04:22.381Z,21.68
2023-05-14T06:06:53.192Z,21.68
2023-05-14T06:09:23.797Z,21.67
2023-05-14T06:11:54.770Z,21.66
2023-05-14T06:14:25.469Z,21.66
2023-05-14T06:16:56.533Z,21.66
2023-05-14T06:19:27.630Z,21.66
2023-05-14T06:21:58.637Z,21.65
2023-05-14T06:24:39.357Z,21.65
2023-05-14T06:27:11.306Z,21.65
2023-05-14T06:29:42.234Z,21.65
2023-05-14T06:32:15.722Z,21.65
2023-05-14T06:34:46.743Z,21.66
2023-05-14T06:37:17.611Z,21.66
2023-05-14T06:39:50.493Z,21.67
2023-05-14T06:42:21.770Z,21.67
2023-05-14T06:44:52.537Z,21.67
2023-05-14T06:47:23.628Z,21.67
2023-05-14T06:49:55.926Z,21.62
2023-05-14T06:52:27.277Z,21.60
2023-05-14T06:54:58.174Z,21.60
2023-05-14T06:57:29.034Z,21.62
2023-05-14T07:00:02.885Z,21.63
2023-05-14T07:02:34.448Z,21.63
2023-05-14T07:05:05.588Z,21.64
2023-05-14T07:07:36.518Z,21.64
2023-05-14T07:10:09.349Z,21.65
2023-05-14T07:12:40.598Z,21.65
2023-05-14T07:15:13.140Z,21.65
2023-05-14T07:17:46.781Z,21.64
2023-05-14T07:20:17.759Z,21.65
2023-05-14T07:22:48.758Z,21.65
2023-05-14T07:25:19.901Z,21.66
2023-05-14T07:27:50.796Z,21.65
2023-05-14T07:30:21.826Z,21.65
2023-05-14T07:32:53.122Z,21.65
2023-05-14T07:35:25.589Z,21.66
2023-05-14T07:37:56.568Z,21.66
2023-05-14T07:40:27.582Z,21.65
2023-05-14T07:42:58.522Z,21.63
2023-05-14T07:45:29.365Z,21.65
2023-05-14T07:48:00.175Z,21.67
2023-05-14T07:50:31.851Z,21.67
2023-05-14T07:53:02.850Z,21.67
2023-05-14T07:55:34.140Z,21.67
2023-05-14T07:58:04.967Z,21.68
2023-05-14T08:00:36.263Z,21.69
2023-05-14T08:03:07.154Z,21.68
2023-05-14T08:05:38.319Z,21.69
2023-05-14T08:08:10.572Z,21.69
2023-05-14T08:10:41.463Z,21.69
2023-05-14T08:13:12.499Z,21.70
2023-05-14T08:15:43.579Z,21.70
2023-05-14T08:18:14.483Z,21.70
2023-05-14T08:20:45.605Z,21.70
2023-05-14T08:23:16.441Z,21.71
2023-05-14T08:25:47.588Z,21.70
2023-05-14T08:28:18.442Z,21.70
2023-05-14T08:30:49.317Z,21.72
2023-05-14T08:33:20.105Z,21.72
2023-05-14T08:35:51.360Z,21.72
2023-05-14T08:38:22.451Z,21.72
2023-05-14T08:40:58.141Z,21.72
2023-05-14T08:43:32.299Z,21.72
2023-05-14T08:46:06.518Z,21.73
2023-05-14T08:48:38.109Z,21.73
2023-05-14T08:51:10.333Z,21.74
2023-05-14T08:53:42.080Z,21.74
2023-05-14T08:56:14.034Z,21.74
2023-05-14T08:58:44.887Z,21.75
2023-05-14T09:01:15.783Z,21.74
2023-05-14T09:03:47.434Z,21.75
2023-05-14T09:06:19.473Z,21.75
2023-05-14T09:08:50.810Z,21.77
2023-05-14T09:11:21.688Z,21.77
2023-05-14T09:13:52.510Z,21.79
2023-05-14T09:16:24.124Z,21.79
2023-05-14T09:18:55.660Z,21.81
2023-05-14T09:21:26.768Z,21.82
2023-05-14T09:23:59.793Z,21.84
2023-05-14T09:26:32.907Z,21.83
2023-05-14T09:29:04.403Z,21.84
2023-05-14T09:31:37.437Z,21.84
2023-05-14T09:34:08.309Z,21.85
2023-05-14T09:36:39.474Z,21.84
2023-05-14T09:39:10.232Z,21.85
2023-05-14T09:41:40.949Z,21.85
2023-05-14T09:44:11.958Z,21.86
2023-05-14T09:46:42.942Z,21.86
2023-05-14T09:49:14.178Z,21.87
2023-05-14T09:51:45.865Z,21.86
2023-05-14T09:54:17.737Z,21.87
2023-05-14T09:56:48.774Z,21.86
2023-05-14T09:59:19.805Z,21.85
2023-05-14T10:01:52.512Z,21.86
2023-05-14T10:04:24.302Z,21.85
2023-05-14T10:06:57.251Z,21.85
2023-05-14T10:09:31.083Z,21.86
2023-05-14T10:12:02.618Z,21.86
2023-05-14T10:14:40.066Z,21.84
2023-05-14T10:17:18.619Z,21.82
2023-05-14T10:19:53.783Z,21.82
2023-05-14T10:22:28.689Z,21.84
2023-05-14T10:25:00.535Z,21.86
2023-05-14T10:27:32.046Z,21.86
2023-05-14T10:30:06.912Z,21.88
2023-05-14T10:32:38.116Z,21.89
2023-05-14T10:35:20.811Z,21.91
2023-05-14T10:37:53.802Z,21.92
2023-05-14T10:40:26.547Z,21.92
2023-05-14T10:43:00.377Z,21.92
2023-05-14T10:45:33.853Z,21.91
2023-05-14T10:48:05.225Z,21.92
2023-05-14T10:50:36.289Z,21.93
2023-05-14T10:53:11.782Z,21.94
2023-05-14T10:55:43.579Z,21.94
2023-05-14T10:58:18.264Z,21.93
2023-05-14T11:00:51.076Z,21.94
2023-05-14T11:03:22.764Z,21.93
2023-05-14T11:05:56.162Z,21.93
2023-05-14T11:08:29.530Z,21.92
2023-05-14T11:11:01.111Z,21.93
2023-05-14T11:13:34.470Z,21.95
2023-05-14T11:16:15.580Z,21.96
2023-05-14T11:19:04.681Z,21.96
2023-05-14T11:21:35.889Z,21.96
2023-05-14T11:24:07.703Z,21.95
2023-05-14T11:26:39.014Z,21.96
2023-05-14T11:29:11.427Z,21.97
2023-05-14T11:31:43.726Z,22.00
2023-05-14T11:34:14.529Z,22.00
2023-05-14T11:36:45.518Z,22.02
2023-05-14T11:39:22.122Z,22.04
2023-05-14T11:41:52.950Z,22.06
2023-05-14T11:44:24.228Z,22.08
2023-05-14T11:46:59.571Z,22.09
2023-05-14T11:49:31.222Z,22.09
2023-05-14T11:52:03.208Z,22.10
2023-05-14T11:54:35.767Z,22.10
2023-05-14T11:57:12.696Z,22.10
2023-05-14T11:59:43.549Z,22.09
2023-05-14T12:02:15.835Z,22.09
2023-05-14T12:04:51.350Z,22.09
2023-05-14T12:07:22.641Z,22.08
2023-05-14T12:09:53.605Z,22.08
2023-05-14T12:12:25.163Z,22.08
2023-05-14T12:14:56.190Z,22.08
2023-05-14T12:17:27.214Z,22.08
2023-05-14T12:19:59.911Z,22.08
2023-05-14T12:22:32.962Z,22.07
2023-05-14T12:25:05.520Z,22.08
2023-05-14T12:27:40.392Z,22.07
2023-05-14T12:30:21.435Z,22.07
2023-05-14T12:32:53.798Z,22.07
2023-05-14T12:35:25.271Z,22.06
2023-05-14T12:37:56.526Z,22.07
2023-05-14T12:40:27.409Z,22.07
2023-05-14T12:42:58.150Z,22.07
2023-05-14T12:45:28.986Z,22.07
2023-05-14T12:48:00.342Z,22.07
2023-05-14T12:50:31.381Z,22.08
2023-05-14T12:53:02.336Z,22.07
2023-05-14T12:55:34.351Z,22.07
2023-05-14T12:58:05.356Z,22.07
2023-05-14T13:00:36.390Z,22.07
2023-05-14T13:03:07.319Z,22.06
2023-05-14T13:05:38.647Z,22.04
2023-05-14T13:08:10.847Z,22.05
2023-05-14T13:10:41.871Z,22.05
2023-05-14T13:13:15.296Z,22.05
2023-05-14T13:15:46.859Z,22.04
2023-05-14T13:18:19.047Z,22.03
2023-05-14T13:20:50.282Z,22.03
2023-05-14T13:23:21.102Z,22.03
2023-05-14T13:25:52.583Z,22.02
2023-05-14T13:28:23.233Z,22.02
2023-05-14T13:31:08.809Z,22.04
2023-05-14T13:33:42.388Z,22.05
2023-05-14T13:36:15.003Z,22.06
2023-05-14T13:38:46.885Z,22.08
2023-05-14T13:41:18.282Z,22.09
2023-05-14T13:43:49.059Z,22.11
2023-05-14T13:46:19.999Z,22.13
2023-05-14T13:48:51.296Z,22.14
2023-05-14T13:51:22.290Z,22.14
2023-05-14T13:56:30.370Z,22.17
2023-05-14T13:59:01.573Z,22.18
2023-05-14T14:01:32.414Z,22.20
2023-05-14T14:04:03.565Z,22.20
2023-05-14T14:06:35.033Z,22.21
2023-05-14T14:09:06.304Z,22.21
2023-05-14T14:11:37.249Z,22.22
2023-05-14T14:14:08.333Z,22.22
2023-05-14T14:16:39.617Z,22.22
2023-05-14T14:19:11.416Z,22.23
2023-05-14T14:21:42.996Z,22.24
2023-05-14T14:24:13.732Z,22.26
2023-05-14T14:26:44.905Z,22.27
2023-05-14T14:29:18.379Z,22.28
2023-05-14T14:31:49.989Z,22.29
2023-05-14T14:34:21.005Z,22.29
2023-05-14T14:36:53.445Z,22.31
2023-05-14T14:39:26.656Z,22.31
2023-05-14T14:41:57.931Z,22.32
2023-05-14T14:44:28.855Z,22.33
2023-05-14T14:47:00.145Z,22.33
2023-05-14T14:49:32.285Z,22.34
2023-05-14T14:52:03.198Z,22.35
2023-05-14T14:54:33.965Z,22.35
2023-05-14T14:57:05.078Z,22.36
2023-05-14T14:59:36.256Z,22.35
2023-05-14T15:02:09.065Z,22.38
2023-05-14T15:04:39.854Z,22.38
2023-05-14T15:07:11.433Z,22.39
2023-05-14T15:09:42.481Z,22.40
2023-05-14T15:12:14.397Z,22.41
2023-05-14T15:14:45.288Z,22.42
2023-05-14T15:17:16.671Z,22.43
2023-05-14T15:19:47.893Z,22.44
2023-05-14T15:22:18.816Z,22.45
2023-05-14T15:24:49.888Z,22.46
2023-05-14T15:27:21.179Z,22.47
2023-05-14T15:29:52.707Z,22.48
2023-05-14T15:32:24.683Z,22.48
2023-05-14T15:34:55.876Z,22.48
2023-05-14T15:37:27.998Z,22.50
2023-05-14T15:39:58.783Z,22.50
2023-05-14T15:42:30.411Z,22.52
2023-05-14T15:45:01.383Z,22.52
2023-05-14T15:47:32.790Z,22.52
2023-05-14T15:50:03.973Z,22.52
2023-05-14T15:52:35.174Z,22.53
2023-05-14T15:55:06.608Z,22.54
2023-05-14T15:57:37.660Z,22.55
2023-05-14T16:00:11.636Z,22.56
2023-05-14T16:02:43.078Z,22.59
2023-05-14T16:05:14.883Z,22.60
2023-05-14T16:07:46.129Z,22.62
2023-05-14T16:10:17.129Z,22.61
2023-05-14T16:12:48.245Z,22.62
2023-05-14T16:15:19.369Z,22.63
2023-05-14T16:17:50.454Z,22.63
2023-05-14T16:20:22.051Z,22.63
2023-05-14T16:22:53.144Z,22.63
2023-05-14T16:25:24.378Z,22.63
2023-05-14T16:27:55.712Z,22.63
2023-05-14T16:30:26.744Z,22.63
2023-05-14T16:32:58.041Z,22.63
2023-05-14T16:35:29.072Z,22.62
2023-05-14T16:38:00.411Z,22.63
2023-05-14T16:40:31.371Z,22.63
2023-05-14T16:43:02.353Z,22.63
2023-05-14T16:45:35.007Z,22.62
2023-05-14T16:48:06.647Z,22.62
2023-05-14T16:50:37.887Z,22.62
2023-05-14T16:53:09.230Z,22.63
2023-05-14T16:55:40.984Z,22.63
2023-05-14T16:58:12.397Z,22.63
2023-05-14T17:00:43.781Z,22.64
2023-05-14T17:03:15.557Z,22.64
2023-05-14T17:05:47.503Z,22.64
2023-05-14T17:08:18.470Z,22.64
2023-05-14T17:10:49.807Z,22.64
2023-05-14T17:13:21.264Z,22.67
2023-05-14T17:15:52.786Z,22.68
2023-05-14T17:18:24.090Z,22.70
2023-05-14T17:20:55.360Z,22.71
2023-05-14T17:23:26.655Z,22.71
2023-05-14T17:25:58.132Z,22.71
2023-05-14T17:28:30.140Z,22.71
2023-05-14T17:31:01.553Z,22.72
2023-05-14T17:33:33.220Z,22.74
2023-05-14T17:36:05.522Z,22.75
2023-05-14T17:38:37.676Z,22.74
2023-05-14T17:41:09.937Z,22.76
2023-05-14T17:43:40.890Z,22.76
2023-05-14T17:46:13.457Z,22.76
2023-05-14T17:48:44.572Z,22.77
2023-05-14T17:51:15.554Z,22.77
2023-05-14T17:53:47.531Z,22.77
2023-05-14T17:56:18.691Z,22.78
2023-05-14T17:58:50.870Z,22.78
2023-05-14T18:01:22.006Z,22.78
2023-05-14T18:03:53.633Z,22.77
2023-05-14T18:06:24.604Z,22.77
2023-05-14T18:08:56.065Z,22.77
2023-05-14T18:11:32.807Z,22.76
2023-05-14T18:14:05.114Z,22.75
2023-05-14T18:16:38.125Z,22.75
2023-05-14T18:19:09.303Z,22.74
2023-05-14T18:21:40.934Z,22.72
2023-05-14T18:24:12.471Z,22.73
2023-05-14T18:26:43.715Z,22.72
2023-05-14T18:29:15.023Z,22.71
2023-05-14T18:31:48.809Z,22.70
2023-05-14T18:34:20.212Z,22.68
2023-05-14T18:36:51.696Z,22.67
2023-05-14T18:39:23.460Z,22.66
2023-05-14T18:41:55.308Z,22.66
2023-05-14T18:44:26.687Z,22.67
2023-05-14T18:46:59.560Z,22.69
2023-05-14T18:49:31.366Z,22.69
2023-05-14T18:52:02.590Z,22.69
2023-05-14T18:54:34.029Z,22.69
2023-05-14T18:57:07.838Z,22.70
2023-05-14T18:59:38.982Z,22.70
2023-05-14T19:02:10.991Z,22.70
2023-05-14T19:04:51.824Z,22.70
2023-05-14T19:07:24.502Z,22.70
2023-05-14T19:09:56.145Z,22.71
2023-05-14T19:12:27.194Z,22.71
2023-05-14T19:14:58.556Z,22.71
2023-05-14T19:17:32.897Z,22.72
2023-05-14T19:20:05.045Z,22.72
2023-05-14T19:22:36.058Z,22.73
2023-05-14T19:25:08.444Z,22.74
2023-05-14T19:27:40.314Z,22.75
2023-05-14T19:30:14.545Z,22.76
2023-05-14T19:32:45.530Z,22.77
2023-05-14T19:35:17.548Z,22.78
2023-05-14T19:37:49.016Z,22.78
2023-05-14T19:40:20.809Z,22.78
2023-05-14T19:42:51.862Z,22.79
2023-05-14T19:45:22.950Z,22.80
2023-05-14T19:47:54.231Z,22.81
2023-05-14T19:50:25.535Z,22.83
2023-05-14T19:52:56.932Z,22.83
2023-05-14T19:55:29.837Z,22.84
2023-05-14T19:58:01.069Z,22.83
2023-05-14T20:00:32.144Z,22.85
2023-05-14T20:03:03.325Z,22.84
2023-05-14T20:05:36.341Z,22.82
2023-05-14T20:08:09.439Z,22.81
2023-05-14T20:10:41.699Z,22.80
2023-05-14T20:13:12.701Z,22.80
2023-05-14T20:15:44.178Z,22.80
2023-05-14T20:18:15.165Z,22.80
2023-05-14T20:20:46.184Z,22.80
2023-05-14T20:23:17.541Z,22.78
2023-05-14T20:25:48.959Z,22.79
2023-05-14T20:28:19.894Z,22.78
2023-05-14T20:30:50.673Z,22.78
2023-05-14T20:33:21.530Z,22.77
2023-05-14T20:35:52.568Z,22.76
2023-05-14T20:38:25.724Z,22.76
2023-05-14T20:40:56.569Z,22.76
2023-05-14T20:43:28.967Z,22.75
2023-05-14T20:46:01.000Z,22.73
2023-05-14T20:48:35.216Z,22.71
2023-05-14T20:51:06.767Z,22.69
2023-05-14T20:53:39.284Z,22.68
2023-05-14T20:56:10.562Z,22.66
2023-05-14T20:58:41.828Z,22.65
2023-05-14T21:01:12.548Z,22.62
2023-05-14T21:03:43.868Z,22.63
2023-05-14T21:06:14.984Z,22.61
2023-05-14T21:08:45.983Z,22.62
2023-05-14T21:11:16.975Z,22.61
2023-05-14T21:13:47.871Z,22.59
2023-05-14T21:16:19.940Z,22.56
2023-05-14T21:18:50.807Z,22.55
2023-05-14T21:21:21.717Z,22.54
2023-05-14T21:23:52.513Z,22.52
2023-05-14T21:26:23.697Z,22.50
2023-05-14T21:28:54.558Z,22.47
2023-05-14T21:31:25.634Z,22.47
2023-05-14T21:33:56.521Z,22.45
2023-05-14T21:36:27.741Z,22.44
2023-05-14T21:38:58.442Z,22.42
2023-05-14T21:41:29.299Z,22.41
2023-05-14T21:44:00.027Z,22.40
2023-05-14T21:46:31.328Z,22.39
2023-05-14T21:49:02.069Z,22.38
2023-05-14T21:51:33.333Z,22.36
2023-05-14T21:54:04.189Z,22.35
2023-05-14T21:56:35.970Z,22.34
2023-05-14T21:59:07.112Z,22.33
2023-05-14T22:01:50.604Z,22.31
2023-05-14T22:04:28.397Z,22.29
2023-05-14T22:06:59.257Z,22.29
2023-05-14T22:09:30.570Z,22.27
2023-05-14T22:12:01.446Z,22.27
2023-05-14T22:14:32.152Z,22.25
2023-05-14T22:17:03.036Z,22.23
2023-05-14T22:19:33.862Z,22.22
2023-05-14T22:22:04.813Z,22.21
2023-05-14T22:24:35.647Z,22.19
2023-05-14T22:27:07.007Z,22.18
2023-05-14T22:29:38.391Z,22.17
2023-05-14T22:32:10.389Z,22.16
2023-05-14T22:34:41.580Z,22.16
2023-05-14T22:37:12.536Z,22.14
2023-05-14T22:39:43.352Z,22.14
2023-05-14T22:42:14.108Z,22.13
2023-05-14T22:44:45.212Z,22.13
2023-05-14T22:47:15.971Z,22.12
2023-05-14T22:49:46.713Z,22.11
2023-05-14T22:52:18.896Z,22.10
2023-05-14T22:54:51.068Z,22.10
2023-05-14T22:57:21.872Z,22.09
2023-05-14T22:59:52.516Z,22.09
2023-05-14T23:02:23.308Z,22.09
2023-05-14T23:04:54.271Z,22.08
2023-05-14T23:07:25.469Z,22.08
2023-05-14T23:09:56.295Z,22.07
2023-05-14T23:12:26.920Z,22.06
2023-05-14T23:14:59.268Z,22.06
2023-05-14T23:17:30.042Z,22.04
2023-05-14T23:20:01.001Z,22.03
2023-05-14T23:22:31.665Z,22.02
2023-05-14T23:25:02.365Z,22.02
2023-05-14T23:27:33.103Z,22.02
2023-05-14T23:30:04.016Z,22.01
2023-05-14T23:32:34.669Z,22.00
2023-05-14T23:35:06.048Z,22.00
2023-05-14T23:37:41.769Z,21.99
2023-05-14T23:40:14.214Z,21.99
2023-05-14T23:42:44.981Z,21.98
2023-05-14T23:45:15.729Z,21.98
2023-05-14T23:47:46.778Z,21.98
2023-05-14T23:50:17.525Z,21.97
2023-05-14T23:52:48.313Z,21.97
2023-05-14T23:55:19.468Z,21.96
2023-05-14T23:57:51.294Z,21.96
